sensor_id;sensor_type;location;lat;lon;timestamp;pressure;altitude;pressure_sealevel;temperature;humidity
63552;BME280;49698;48.072;7.800;2022-09-17T00:01:20;99195.00;;;12.11;78.96
63552;BME280;49698;48.072;7.800;2022-09-17T00:03:49;99194.50;;;12.09;79.35
63552;BME280;49698;48.072;7.800;2022-09-17T00:06:20;99189.50;;;12.02;79.19
63552;BME280;49698;48.072;7.800;2022-09-17T00:08:48;99194.09;;;12.02;78.79
63552;BME280;49698;48.072;7.800;2022-09-17T00:11:21;99193.31;;;12.01;78.84
63552;BME280;49698;48.072;7.800;2022-09-17T00:13:50;99196.28;;;11.99;78.59
63552;BME280;49698;48.072;7.800;2022-09-17T00:16:24;99191.19;;;11.98;78.70
63552;BME280;49698;48.072;7.800;2022-09-17T00:18:53;99193.69;;;11.94;78.15
63552;BME280;49698;48.072;7.800;2022-09-17T00:21:21;99201.25;;;11.92;78.53
63552;BME280;49698;48.072;7.800;2022-09-17T00:23:53;99199.16;;;11.89;78.67
63552;BME280;49698;48.072;7.800;2022-09-17T00:26:23;99200.84;;;11.85;78.44
63552;BME280;49698;48.072;7.800;2022-09-17T00:28:52;99196.81;;;11.83;78.31
63552;BME280;49698;48.072;7.800;2022-09-17T00:31:22;99202.22;;;11.83;78.44
63552;BME280;49698;48.072;7.800;2022-09-17T00:33:50;99203.31;;;11.82;78.44
63552;BME280;49698;48.072;7.800;2022-09-17T00:36:18;99207.91;;;11.81;78.45
63552;BME280;49698;48.072;7.800;2022-09-17T00:38:48;99206.78;;;11.82;78.68
63552;BME280;49698;48.072;7.800;2022-09-17T00:41:16;99217.56;;;11.82;78.31
63552;BME280;49698;48.072;7.800;2022-09-17T00:43:48;99212.47;;;11.81;78.34
63552;BME280;49698;48.072;7.800;2022-09-17T00:46:24;99206.38;;;11.75;78.59
63552;BME280;49698;48.072;7.800;2022-09-17T00:48:54;99208.66;;;11.68;78.32
63552;BME280;49698;48.072;7.800;2022-09-17T00:51:27;99210.84;;;11.66;78.34
63552;BME280;49698;48.072;7.800;2022-09-17T00:53:58;99208.72;;;11.63;78.85
63552;BME280;49698;48.072;7.800;2022-09-17T00:56:29;99211.53;;;11.58;78.31
63552;BME280;49698;48.072;7.800;2022-09-17T00:59:00;99217.47;;;11.55;78.46
63552;BME280;49698;48.072;7.800;2022-09-17T01:01:29;99216.16;;;11.52;78.47
63552;BME280;49698;48.072;7.800;2022-09-17T01:03:58;99222.44;;;11.47;78.27
63552;BME280;49698;48.072;7.800;2022-09-17T01:06:32;99219.00;;;11.42;78.18
63552;BME280;49698;48.072;7.800;2022-09-17T01:09:25;99228.25;;;11.36;77.63
63552;BME280;49698;48.072;7.800;2022-09-17T01:12:06;99221.34;;;11.30;77.81
63552;BME280;49698;48.072;7.800;2022-09-17T01:14:51;99232.91;;;11.30;77.31
63552;BME280;49698;48.072;7.800;2022-09-17T01:17:28;99222.75;;;11.27;77.23
63552;BME280;49698;48.072;7.800;2022-09-17T01:20:35;99224.34;;;11.28;77.38
63552;BME280;49698;48.072;7.800;2022-09-17T01:23:30;99227.81;;;11.29;77.24
63552;BME280;49698;48.072;7.800;2022-09-17T01:26:17;99233.50;;;11.27;77.26
63552;BME280;49698;48.072;7.800;2022-09-17T01:29:11;99243.44;;;11.26;77.15
63552;BME280;49698;48.072;7.800;2022-09-17T01:31:49;99246.44;;;11.25;77.07
63552;BME280;49698;48.072;7.800;2022-09-17T01:34:25;99242.16;;;11.24;76.76
63552;BME280;49698;48.072;7.800;2022-09-17T01:37:02;99248.63;;;11.23;76.86
63552;BME280;49698;48.072;7.800;2022-09-17T01:39:41;99257.28;;;11.20;76.80
63552;BME280;49698;48.072;7.800;2022-09-17T01:42:17;99253.78;;;11.19;76.72
63552;BME280;49698;48.072;7.800;2022-09-17T01:44:52;99252.97;;;11.19;76.62
63552;BME280;49698;48.072;7.800;2022-09-17T01:47:28;99246.78;;;11.18;76.54
63552;BME280;49698;48.072;7.800;2022-09-17T01:50:01;99245.41;;;11.21;76.67
63552;BME280;49698;48.072;7.800;2022-09-17T01:52:31;99248.63;;;11.23;76.25
63552;BME280;49698;48.072;7.800;2022-09-17T01:55:04;99247.59;;;11.19;75.92
63552;BME280;49698;48.072;7.800;2022-09-17T01:57:39;99248.19;;;11.16;76.04
63552;BME280;49698;48.072;7.800;2022-09-17T02:00:11;99244.19;;;11.13;76.01
63552;BME280;49698;48.072;7.800;2022-09-17T02:02:44;99235.31;;;11.13;76.18
63552;BME280;49698;48.072;7.800;2022-09-17T02:05:17;99244.75;;;11.10;75.81
63552;BME280;49698;48.072;7.800;2022-09-17T02:07:51;99235.66;;;11.06;76.22
63552;BME280;49698;48.072;7.800;2022-09-17T02:10:24;99245.63;;;11.06;75.87
63552;BME280;49698;48.072;7.800;2022-09-17T02:12:56;99232.69;;;11.08;75.63
63552;BME280;49698;48.072;7.800;2022-09-17T02:15:32;99241.78;;;11.12;76.08
63552;BME280;49698;48.072;7.800;2022-09-17T02:18:06;99235.31;;;11.13;75.76
63552;BME280;49698;48.072;7.800;2022-09-17T02:20:41;99238.22;;;11.16;75.61
63552;BME280;49698;48.072;7.800;2022-09-17T02:23:14;99228.47;;;11.20;75.33
63552;BME280;49698;48.072;7.800;2022-09-17T02:25:49;99225.72;;;11.25;75.64
63552;BME280;49698;48.072;7.800;2022-09-17T02:28:23;99230.75;;;11.32;75.61
63552;BME280;49698;48.072;7.800;2022-09-17T02:30:54;99232.25;;;11.38;75.26
63552;BME280;49698;48.072;7.800;2022-09-17T02:33:24;99238.16;;;11.40;75.33
63552;BME280;49698;48.072;7.800;2022-09-17T02:35:53;99230.06;;;11.40;75.46
63552;BME280;49698;48.072;7.800;2022-09-17T02:38:22;99223.59;;;11.41;75.60
63552;BME280;49698;48.072;7.800;2022-09-17T02:40:58;99230.88;;;11.41;76.06
63552;BME280;49698;48.072;7.800;2022-09-17T02:43:34;99243.22;;;11.42;75.94
63552;BME280;49698;48.072;7.800;2022-09-17T02:46:15;99241.84;;;11.44;75.97
63552;BME280;49698;48.072;7.800;2022-09-17T02:51:56;99233.34;;;11.37;76.54
63552;BME280;49698;48.072;7.800;2022-09-17T02:54:37;99226.38;;;11.36;76.28
63552;BME280;49698;48.072;7.800;2022-09-17T02:57:13;99230.38;;;11.39;76.66
63552;BME280;49698;48.072;7.800;2022-09-17T02:59:47;99238.16;;;11.40;76.80
63552;BME280;49698;48.072;7.800;2022-09-17T03:02:21;99244.06;;;11.42;76.63
63552;BME280;49698;48.072;7.800;2022-09-17T03:04:52;99243.75;;;11.44;76.81
63552;BME280;49698;48.072;7.800;2022-09-17T03:07:21;99248.34;;;11.43;76.29
63552;BME280;49698;48.072;7.800;2022-09-17T03:09:50;99247.75;;;11.46;76.48
63552;BME280;49698;48.072;7.800;2022-09-17T03:12:18;99254.72;;;11.47;76.55
63552;BME280;49698;48.072;7.800;2022-09-17T03:14:46;99256.31;;;11.48;76.23
63552;BME280;49698;48.072;7.800;2022-09-17T03:17:14;99248.78;;;11.50;76.92
63552;BME280;49698;48.072;7.800;2022-09-17T03:19:42;99253.34;;;11.50;77.13
63552;BME280;49698;48.072;7.800;2022-09-17T03:22:11;99250.94;;;11.48;77.25
63552;BME280;49698;48.072;7.800;2022-09-17T03:24:39;99255.53;;;11.48;77.86
63552;BME280;49698;48.072;7.800;2022-09-17T03:27:07;99256.69;;;11.42;78.38
63552;BME280;49698;48.072;7.800;2022-09-17T03:29:35;99258.88;;;11.40;78.73
63552;BME280;49698;48.072;7.800;2022-09-17T03:32:03;99256.97;;;11.40;78.71
63552;BME280;49698;48.072;7.800;2022-09-17T03:34:32;99258.88;;;11.40;79.29
63552;BME280;49698;48.072;7.800;2022-09-17T03:37:00;99257.28;;;11.39;79.76
63552;BME280;49698;48.072;7.800;2022-09-17T03:39:29;99265.84;;;11.41;79.98
63552;BME280;49698;48.072;7.800;2022-09-17T03:41:57;99267.44;;;11.42;79.73
63552;BME280;49698;48.072;7.800;2022-09-17T03:44:25;99268.28;;;11.42;80.33
63552;BME280;49698;48.072;7.800;2022-09-17T03:46:53;99264.47;;;11.43;80.25
63552;BME280;49698;48.072;7.800;2022-09-17T03:49:21;99269.88;;;11.43;80.43
63552;BME280;49698;48.072;7.800;2022-09-17T03:51:50;99277.41;;;11.41;80.28
63552;BME280;49698;48.072;7.800;2022-09-17T03:54:18;99279.31;;;11.41;80.23
63552;BME280;49698;48.072;7.800;2022-09-17T03:56:48;99283.91;;;11.40;80.33
63552;BME280;49698;48.072;7.800;2022-09-17T03:59:16;99282.78;;;11.41;80.03
63552;BME280;49698;48.072;7.800;2022-09-17T04:01:44;99285.78;;;11.40;80.50
63552;BME280;49698;48.072;7.800;2022-09-17T04:04:12;99280.09;;;11.41;80.37
63552;BME280;49698;48.072;7.800;2022-09-17T04:06:40;99289.28;;;11.40;80.29
63552;BME280;49698;48.072;7.800;2022-09-17T04:09:08;99281.72;;;11.42;80.24
63552;BME280;49698;48.072;7.800;2022-09-17T04:11:36;99287.91;;;11.43;80.51
63552;BME280;49698;48.072;7.800;2022-09-17T04:14:05;99286.81;;;11.44;80.23
63552;BME280;49698;48.072;7.800;2022-09-17T04:16:33;99282.22;;;11.44;80.47
63552;BME280;49698;48.072;7.800;2022-09-17T04:19:01;99290.28;;;11.44;80.53
63552;BME280;49698;48.072;7.800;2022-09-17T04:21:30;99278.44;;;11.45;80.46
63552;BME280;49698;48.072;7.800;2022-09-17T04:23:58;99281.13;;;11.45;80.84
63552;BME280;49698;48.072;7.800;2022-09-17T04:26:26;99286.50;;;11.45;80.77
63552;BME280;49698;48.072;7.800;2022-09-17T04:28:54;99294.59;;;11.45;81.01
63552;BME280;49698;48.072;7.800;2022-09-17T04:31:24;99293.00;;;11.44;81.15
63552;BME280;49698;48.072;7.800;2022-09-17T04:33:52;99291.41;;;11.43;80.88
63552;BME280;49698;48.072;7.800;2022-09-17T04:36:21;99286.50;;;11.45;80.70
63552;BME280;49698;48.072;7.800;2022-09-17T04:38:48;99288.94;;;11.47;81.14
63552;BME280;49698;48.072;7.800;2022-09-17T04:41:16;99297.78;;;11.47;80.50
63552;BME280;49698;48.072;7.800;2022-09-17T04:43:45;99303.19;;;11.47;80.42
63552;BME280;49698;48.072;7.800;2022-09-17T04:46:13;99302.16;;;11.43;80.32
63552;BME280;49698;48.072;7.800;2022-09-17T04:48:43;99311.34;;;11.42;79.98
63552;BME280;49698;48.072;7.800;2022-09-17T04:51:11;99308.91;;;11.41;79.72
63552;BME280;49698;48.072;7.800;2022-09-17T04:53:39;99314.28;;;11.41;79.65
63552;BME280;49698;48.072;7.800;2022-09-17T04:56:07;99318.09;;;11.40;79.66
63552;BME280;49698;48.072;7.800;2022-09-17T04:58:35;99310.28;;;11.38;79.13
63552;BME280;49698;48.072;7.800;2022-09-17T05:01:03;99325.13;;;11.36;79.36
63552;BME280;49698;48.072;7.800;2022-09-17T05:03:31;99326.25;;;11.35;79.50
63552;BME280;49698;48.072;7.800;2022-09-17T05:06:01;99324.63;;;11.34;79.65
63552;BME280;49698;48.072;7.800;2022-09-17T05:08:29;99327.59;;;11.32;79.72
63552;BME280;49698;48.072;7.800;2022-09-17T05:10:57;99324.38;;;11.30;80.14
63552;BME280;49698;48.072;7.800;2022-09-17T05:13:25;99331.66;;;11.30;80.65
63552;BME280;49698;48.072;7.800;2022-09-17T05:15:53;99329.78;;;11.30;81.54
63552;BME280;49698;48.072;7.800;2022-09-17T05:18:22;99336.78;;;11.31;81.40
63552;BME280;49698;48.072;7.800;2022-09-17T05:20:50;99332.47;;;11.30;81.62
63552;BME280;49698;48.072;7.800;2022-09-17T05:23:19;99334.94;;;11.26;81.74
63552;BME280;49698;48.072;7.800;2022-09-17T05:25:47;99337.13;;;11.24;81.71
63552;BME280;49698;48.072;7.800;2022-09-17T05:28:16;99337.41;;;11.23;82.00
63552;BME280;49698;48.072;7.800;2022-09-17T05:30:44;99331.50;;;11.21;82.89
63552;BME280;49698;48.072;7.800;2022-09-17T05:33:12;99336.91;;;11.21;82.96
63552;BME280;49698;48.072;7.800;2022-09-17T05:35:40;99329.91;;;11.20;83.14
63552;BME280;49698;48.072;7.800;2022-09-17T05:38:09;99331.50;;;11.21;83.10
63552;BME280;49698;48.072;7.800;2022-09-17T05:40:39;99343.06;;;11.21;83.02
63552;BME280;49698;48.072;7.800;2022-09-17T05:43:08;99346.56;;;11.22;82.90
63552;BME280;49698;48.072;7.800;2022-09-17T05:45:37;99349.78;;;11.24;82.71
63552;BME280;49698;48.072;7.800;2022-09-17T05:48:08;99354.63;;;11.22;82.84
63552;BME280;49698;48.072;7.800;2022-09-17T05:50:36;99360.31;;;11.20;83.24
63552;BME280;49698;48.072;7.800;2022-09-17T05:53:06;99353.56;;;11.23;83.36
63552;BME280;49698;48.072;7.800;2022-09-17T05:55:35;99359.44;;;11.25;83.53
63552;BME280;49698;48.072;7.800;2022-09-17T05:58:09;99358.88;;;11.28;83.47
63552;BME280;49698;48.072;7.800;2022-09-17T06:00:38;99362.59;;;11.32;83.24
63552;BME280;49698;48.072;7.800;2022-09-17T06:03:07;99363.91;;;11.35;83.28
63552;BME280;49698;48.072;7.800;2022-09-17T06:05:35;99371.63;;;11.41;83.26
63552;BME280;49698;48.072;7.800;2022-09-17T06:08:03;99367.78;;;11.47;83.12
63552;BME280;49698;48.072;7.800;2022-09-17T06:10:34;99374.41;;;11.55;82.84
63552;BME280;49698;48.072;7.800;2022-09-17T06:13:03;99369.25;;;11.59;82.77
63552;BME280;49698;48.072;7.800;2022-09-17T06:15:32;99381.31;;;11.61;82.37
63552;BME280;49698;48.072;7.800;2022-09-17T06:18:00;99379.38;;;11.67;82.63
63552;BME280;49698;48.072;7.800;2022-09-17T06:20:28;99380.88;;;11.73;82.13
63552;BME280;49698;48.072;7.800;2022-09-17T06:22:57;99381.94;;;11.77;82.11
63552;BME280;49698;48.072;7.800;2022-09-17T06:25:25;99374.34;;;11.79;81.88
63552;BME280;49698;48.072;7.800;2022-09-17T06:27:55;99387.22;;;11.82;81.70
63552;BME280;49698;48.072;7.800;2022-09-17T06:30:23;99396.34;;;11.86;81.29
63552;BME280;49698;48.072;7.800;2022-09-17T06:32:52;99390.88;;;11.91;81.11
63552;BME280;49698;48.072;7.800;2022-09-17T06:35:20;99401.09;;;11.94;80.80
63552;BME280;49698;48.072;7.800;2022-09-17T06:37:48;99396.50;;;11.95;80.65
63552;BME280;49698;48.072;7.800;2022-09-17T06:40:16;99389.78;;;11.92;80.37
63552;BME280;49698;48.072;7.800;2022-09-17T06:42:44;99393.09;;;11.89;80.37
63552;BME280;49698;48.072;7.800;2022-09-17T06:45:12;99390.41;;;11.89;80.73
63552;BME280;49698;48.072;7.800;2022-09-17T06:47:42;99398.75;;;11.88;80.90
63552;BME280;49698;48.072;7.800;2022-09-17T06:50:11;99393.59;;;11.91;80.54
63552;BME280;49698;48.072;7.800;2022-09-17T06:52:46;99393.59;;;11.91;80.47
63552;BME280;49698;48.072;7.800;2022-09-17T06:55:14;99405.38;;;11.95;79.81
63552;BME280;49698;48.072;7.800;2022-09-17T06:57:43;99403.44;;;12.01;79.09
63552;BME280;49698;48.072;7.800;2022-09-17T07:00:11;99407.94;;;12.06;78.73
63552;BME280;49698;48.072;7.800;2022-09-17T07:02:40;99408.94;;;12.10;78.22
63552;BME280;49698;48.072;7.800;2022-09-17T07:05:08;99406.56;;;12.08;77.57
63552;BME280;49698;48.072;7.800;2022-09-17T07:07:38;99418.34;;;12.12;77.32
63552;BME280;49698;48.072;7.800;2022-09-17T07:10:07;99414.25;;;12.15;77.25
63552;BME280;49698;48.072;7.800;2022-09-17T07:12:39;99409.75;;;12.10;76.69
63552;BME280;49698;48.072;7.800;2022-09-17T07:15:09;99410.63;;;12.06;76.59
63552;BME280;49698;48.072;7.800;2022-09-17T07:17:37;99417.59;;;12.07;76.31
63552;BME280;49698;48.072;7.800;2022-09-17T07:20:07;99418.03;;;12.14;76.07
63552;BME280;49698;48.072;7.800;2022-09-17T07:22:35;99413.09;;;12.21;75.45
63552;BME280;49698;48.072;7.800;2022-09-17T07:25:06;99416.81;;;12.25;74.87
63552;BME280;49698;48.072;7.800;2022-09-17T07:27:34;99420.00;;;12.27;74.78
63552;BME280;49698;48.072;7.800;2022-09-17T07:30:03;99420.81;;;12.28;74.62
63552;BME280;49698;48.072;7.800;2022-09-17T07:32:31;99423.41;;;12.33;74.41
63552;BME280;49698;48.072;7.800;2022-09-17T07:34:59;99417.66;;;12.39;74.20
63552;BME280;49698;48.072;7.800;2022-09-17T07:37:27;99416.19;;;12.47;73.76
63552;BME280;49698;48.072;7.800;2022-09-17T07:39:55;99419.38;;;12.49;73.39
63552;BME280;49698;48.072;7.800;2022-09-17T07:42:24;99422.06;;;12.49;72.99
63552;BME280;49698;48.072;7.800;2022-09-17T07:44:53;99420.19;;;12.49;73.10
63552;BME280;49698;48.072;7.800;2022-09-17T07:47:23;99425.78;;;12.53;72.58
63552;BME280;49698;48.072;7.800;2022-09-17T07:49:51;99430.28;;;12.58;72.31
63552;BME280;49698;48.072;7.800;2022-09-17T07:52:19;99422.03;;;12.68;72.15
63552;BME280;49698;48.072;7.800;2022-09-17T07:54:47;99424.47;;;12.83;71.76
63552;BME280;49698;48.072;7.800;2022-09-17T07:57:15;99428.78;;;12.98;71.11
63552;BME280;49698;48.072;7.800;2022-09-17T07:59:44;99434.09;;;13.03;70.79
63552;BME280;49698;48.072;7.800;2022-09-17T08:02:12;99432.13;;;13.09;70.49
63552;BME280;49698;48.072;7.800;2022-09-17T08:04:41;99432.13;;;13.09;70.49
63552;BME280;49698;48.072;7.800;2022-09-17T08:07:11;99434.88;;;13.04;70.74
63552;BME280;49698;48.072;7.800;2022-09-17T08:09:39;99440.28;;;13.04;70.96
63552;BME280;49698;48.072;7.800;2022-09-17T08:12:07;99443.09;;;12.98;71.13
63552;BME280;49698;48.072;7.800;2022-09-17T08:14:35;99450.44;;;12.93;71.32
63552;BME280;49698;48.072;7.800;2022-09-17T08:17:07;99449.75;;;12.87;71.40
63552;BME280;49698;48.072;7.800;2022-09-17T08:19:35;99446.53;;;12.85;71.19
63552;BME280;49698;48.072;7.800;2022-09-17T08:22:03;99448.75;;;12.83;71.40
63552;BME280;49698;48.072;7.800;2022-09-17T08:24:31;99445.03;;;12.79;71.08
63552;BME280;49698;48.072;7.800;2022-09-17T08:26:58;99449.00;;;12.68;71.58
63552;BME280;49698;48.072;7.800;2022-09-17T08:29:26;99447.56;;;12.57;72.15
63552;BME280;49698;48.072;7.800;2022-09-17T08:31:56;99449.25;;;12.53;72.28
63552;BME280;49698;48.072;7.800;2022-09-17T08:34:25;99449.78;;;12.55;71.97
63552;BME280;49698;48.072;7.800;2022-09-17T08:36:53;99447.56;;;12.57;71.71
63552;BME280;49698;48.072;7.800;2022-09-17T08:39:21;99452.59;;;12.63;71.73
63552;BME280;49698;48.072;7.800;2022-09-17T08:41:54;99465.50;;;12.80;70.80
63552;BME280;49698;48.072;7.800;2022-09-17T08:44:33;99461.06;;;12.89;70.37
63552;BME280;49698;48.072;7.800;2022-09-17T08:47:12;99467.84;;;13.01;69.74
63552;BME280;49698;48.072;7.800;2022-09-17T08:49:48;99472.59;;;13.09;69.22
63552;BME280;49698;48.072;7.800;2022-09-17T08:52:38;99473.69;;;13.21;68.50
63552;BME280;49698;48.072;7.800;2022-09-17T08:55:20;99466.63;;;13.39;67.63
63552;BME280;49698;48.072;7.800;2022-09-17T08:57:55;99477.13;;;13.55;67.05
63552;BME280;49698;48.072;7.800;2022-09-17T09:00:31;99471.66;;;13.60;66.79
63552;BME280;49698;48.072;7.800;2022-09-17T09:03:11;99474.63;;;13.58;66.40
63552;BME280;49698;48.072;7.800;2022-09-17T09:05:49;99476.13;;;13.51;66.82
63552;BME280;49698;48.072;7.800;2022-09-17T09:08:23;99473.66;;;13.40;67.00
63552;BME280;49698;48.072;7.800;2022-09-17T09:10:55;99478.34;;;13.35;67.21
63552;BME280;49698;48.072;7.800;2022-09-17T09:13:27;99477.72;;;13.24;67.26
63552;BME280;49698;48.072;7.800;2022-09-17T09:15:58;99484.09;;;13.14;67.66
63552;BME280;49698;48.072;7.800;2022-09-17T09:18:29;99479.06;;;13.08;67.80
63552;BME280;49698;48.072;7.800;2022-09-17T09:21:08;99477.88;;;13.14;67.71
63552;BME280;49698;48.072;7.800;2022-09-17T09:23:47;99481.53;;;13.23;67.29
63552;BME280;49698;48.072;7.800;2022-09-17T09:26:20;99475.94;;;13.33;66.96
63552;BME280;49698;48.072;7.800;2022-09-17T09:29:09;99479.53;;;13.42;66.45
63552;BME280;49698;48.072;7.800;2022-09-17T09:31:47;99481.25;;;13.52;66.21
63552;BME280;49698;48.072;7.800;2022-09-17T09:34:17;99484.16;;;13.56;66.06
63552;BME280;49698;48.072;7.800;2022-09-17T09:36:48;99482.16;;;13.48;65.67
63552;BME280;49698;48.072;7.800;2022-09-17T09:39:19;99481.13;;;13.30;65.84
63552;BME280;49698;48.072;7.800;2022-09-17T09:41:52;99499.91;;;13.21;66.08
63552;BME280;49698;48.072;7.800;2022-09-17T09:44:24;99492.50;;;13.13;66.09
63552;BME280;49698;48.072;7.800;2022-09-17T09:47:05;99494.97;;;13.09;66.72
63552;BME280;49698;48.072;7.800;2022-09-17T09:49:56;99489.97;;;13.03;66.93
63552;BME280;49698;48.072;7.800;2022-09-17T09:52:38;99496.94;;;13.04;67.27
63552;BME280;49698;48.072;7.800;2022-09-17T09:55:24;99500.59;;;13.13;67.41
63552;BME280;49698;48.072;7.800;2022-09-17T09:58:05;99488.25;;;13.07;67.38
63552;BME280;49698;48.072;7.800;2022-09-17T10:00:41;99496.47;;;13.02;67.38
63552;BME280;49698;48.072;7.800;2022-09-17T10:03:12;99500.84;;;12.97;67.57
63552;BME280;49698;48.072;7.800;2022-09-17T10:05:52;99505.34;;;13.02;67.52
63552;BME280;49698;48.072;7.800;2022-09-17T10:08:22;99499.16;;;13.15;67.38
63552;BME280;49698;48.072;7.800;2022-09-17T10:10:59;99498.00;;;13.21;67.02
63552;BME280;49698;48.072;7.800;2022-09-17T10:13:29;99497.47;;;13.19;67.02
63552;BME280;49698;48.072;7.800;2022-09-17T10:16:15;99491.72;;;13.26;67.33
63552;BME280;49698;48.072;7.800;2022-09-17T10:18:45;99494.56;;;13.49;66.77
63552;BME280;49698;48.072;7.800;2022-09-17T10:21:29;99486.34;;;13.67;66.28
63552;BME280;49698;48.072;7.800;2022-09-17T10:24:01;99485.06;;;13.79;65.68
63552;BME280;49698;48.072;7.800;2022-09-17T10:26:32;99490.53;;;13.87;65.65
63552;BME280;49698;48.072;7.800;2022-09-17T10:29:04;99487.50;;;14.03;64.94
63552;BME280;49698;48.072;7.800;2022-09-17T10:31:45;99480.47;;;14.15;64.43
63552;BME280;49698;48.072;7.800;2022-09-17T10:34:21;99487.06;;;14.23;64.32
63552;BME280;49698;48.072;7.800;2022-09-17T10:36:51;99490.16;;;14.30;63.72
63552;BME280;49698;48.072;7.800;2022-09-17T10:39:32;99486.84;;;14.33;63.28
63552;BME280;49698;48.072;7.800;2022-09-17T10:42:03;99498.03;;;14.40;62.68
63552;BME280;49698;48.072;7.800;2022-09-17T10:44:33;99487.22;;;14.40;62.55
63552;BME280;49698;48.072;7.800;2022-09-17T10:47:10;99498.13;;;14.49;62.45
63552;BME280;49698;48.072;7.800;2022-09-17T10:49:41;99499.41;;;14.52;62.43
63552;BME280;49698;48.072;7.800;2022-09-17T10:52:20;99497.59;;;14.47;61.99
63552;BME280;49698;48.072;7.800;2022-09-17T10:58:07;99498.97;;;14.22;62.47
63552;BME280;49698;48.072;7.800;2022-09-17T11:00:46;99496.09;;;14.18;62.97
63552;BME280;49698;48.072;7.800;2022-09-17T11:03:46;99489.28;;;14.21;62.98
63552;BME280;49698;48.072;7.800;2022-09-17T11:06:28;99492.59;;;14.18;62.46
63552;BME280;49698;48.072;7.800;2022-09-17T11:09:05;99487.38;;;14.22;61.92
63552;BME280;49698;48.072;7.800;2022-09-17T11:11:46;99487.66;;;14.20;61.44
63552;BME280;49698;48.072;7.800;2022-09-17T11:14:32;99488.66;;;14.24;61.16
63552;BME280;49698;48.072;7.800;2022-09-17T11:17:12;99480.25;;;14.26;61.01
63552;BME280;49698;48.072;7.800;2022-09-17T11:19:52;99492.97;;;14.25;61.00
63552;BME280;49698;48.072;7.800;2022-09-17T11:22:31;99490.88;;;14.22;60.89
63552;BME280;49698;48.072;7.800;2022-09-17T11:25:19;99488.78;;;14.19;61.31
63552;BME280;49698;48.072;7.800;2022-09-17T11:28:00;99485.56;;;14.17;61.52
63552;BME280;49698;48.072;7.800;2022-09-17T11:30:42;99485.88;;;14.15;61.66
63552;BME280;49698;48.072;7.800;2022-09-17T11:33:23;99489.88;;;14.18;61.42
63552;BME280;49698;48.072;7.800;2022-09-17T11:35:57;99489.56;;;14.19;61.37
63552;BME280;49698;48.072;7.800;2022-09-17T11:38:29;99483.75;;;14.26;61.10
63552;BME280;49698;48.072;7.800;2022-09-17T11:41:00;99483.22;;;14.38;60.39
63552;BME280;49698;48.072;7.800;2022-09-17T11:43:32;99479.19;;;14.49;60.17
63552;BME280;49698;48.072;7.800;2022-09-17T11:46:07;99472.13;;;14.62;59.59
63552;BME280;49698;48.072;7.800;2022-09-17T11:48:39;99465.50;;;14.68;59.76
63552;BME280;49698;48.072;7.800;2022-09-17T11:51:22;99473.41;;;14.87;59.17
63552;BME280;49698;48.072;7.800;2022-09-17T11:53:56;99477.63;;;15.02;59.04
63552;BME280;49698;48.072;7.800;2022-09-17T11:56:30;99477.50;;;15.07;59.02
63552;BME280;49698;48.072;7.800;2022-09-17T11:59:03;99477.16;;;15.00;59.27
63552;BME280;49698;48.072;7.800;2022-09-17T12:01:40;99467.81;;;14.83;58.96
63552;BME280;49698;48.072;7.800;2022-09-17T12:04:33;99471.88;;;14.72;59.32
63552;BME280;49698;48.072;7.800;2022-09-17T12:07:13;99469.56;;;14.57;59.91
63552;BME280;49698;48.072;7.800;2022-09-17T12:09:47;99472.72;;;14.59;60.13
63552;BME280;49698;48.072;7.800;2022-09-17T12:12:18;99467.28;;;14.73;60.14
63552;BME280;49698;48.072;7.800;2022-09-17T12:15:13;99461.16;;;14.89;59.38
63552;BME280;49698;48.072;7.800;2022-09-17T12:17:46;99457.09;;;15.01;59.56
63552;BME280;49698;48.072;7.800;2022-09-17T12:20:29;99459.53;;;15.11;58.86
63552;BME280;49698;48.072;7.800;2022-09-17T12:23:02;99446.00;;;15.11;58.19
63552;BME280;49698;48.072;7.800;2022-09-17T12:25:41;99446.97;;;15.15;57.24
63552;BME280;49698;48.072;7.800;2022-09-17T12:28:16;99446.53;;;15.22;57.23
63552;BME280;49698;48.072;7.800;2022-09-17T12:30:52;99438.28;;;15.35;57.16
63552;BME280;49698;48.072;7.800;2022-09-17T12:33:27;99451.22;;;15.47;56.56
63552;BME280;49698;48.072;7.800;2022-09-17T12:36:09;99444.59;;;15.62;56.04
63552;BME280;49698;48.072;7.800;2022-09-17T12:39:01;99438.09;;;15.72;55.81
63552;BME280;49698;48.072;7.800;2022-09-17T12:41:41;99446.44;;;15.84;55.70
63552;BME280;49698;48.072;7.800;2022-09-17T12:44:25;99435.59;;;15.93;55.00
63552;BME280;49698;48.072;7.800;2022-09-17T12:47:10;99429.38;;;16.01;54.97
63552;BME280;49698;48.072;7.800;2022-09-17T12:49:57;99428.13;;;16.07;54.20
63552;BME280;49698;48.072;7.800;2022-09-17T12:52:34;99432.88;;;16.10;53.72
63552;BME280;49698;48.072;7.800;2022-09-17T12:55:24;99435.13;;;16.17;53.13
63552;BME280;49698;48.072;7.800;2022-09-17T12:58:05;99440.38;;;16.22;53.04
63552;BME280;49698;48.072;7.800;2022-09-17T13:00:40;99426.34;;;16.20;52.82
63552;BME280;49698;48.072;7.800;2022-09-17T13:03:16;99420.13;;;16.02;52.96
63552;BME280;49698;48.072;7.800;2022-09-17T13:06:09;99418.03;;;15.90;52.92
63552;BME280;49698;48.072;7.800;2022-09-17T13:12:00;99412.94;;;16.14;52.62
63552;BME280;49698;48.072;7.800;2022-09-17T13:17:31;99413.75;;;16.15;52.79
63552;BME280;49698;48.072;7.800;2022-09-17T13:20:04;99406.88;;;16.18;52.86
63552;BME280;49698;48.072;7.800;2022-09-17T13:22:45;99403.88;;;16.19;52.85
63552;BME280;49698;48.072;7.800;2022-09-17T13:25:16;99410.09;;;16.11;52.78
63552;BME280;49698;48.072;7.800;2022-09-17T13:27:45;99402.72;;;15.94;52.21
63552;BME280;49698;48.072;7.800;2022-09-17T13:30:15;99402.91;;;15.80;52.67
63552;BME280;49698;48.072;7.800;2022-09-17T13:32:50;99404.31;;;15.78;52.94
63552;BME280;49698;48.072;7.800;2022-09-17T13:35:47;99398.09;;;15.95;52.81
63552;BME280;49698;48.072;7.800;2022-09-17T13:38:19;99404.81;;;16.06;52.27
63552;BME280;49698;48.072;7.800;2022-09-17T13:40:48;99412.63;;;16.07;51.87
63552;BME280;49698;48.072;7.800;2022-09-17T13:43:19;99417.41;;;16.10;51.70